Aviation Digital Data Service (ADDS)

Output produced by METARs form (0706 UTC 26 July 2014)
found at http://aviationweather.gov/adds/metars/
 
KORH 260522Z 2606/2706 25006KT P6SM SKC 
     FM261700 24010KT P6SM BKN140